createdAt,value
2019-04-26T00:00:18.061Z,990.58
2019-04-26T00:01:14.376Z,990.56
2019-04-26T00:02:12.272Z,990.57
2019-04-26T00:03:10.270Z,990.58
2019-04-26T00:04:05.350Z,990.52
2019-04-26T00:05:02.375Z,990.44
2019-04-26T00:05:58.842Z,990.41
2019-04-26T00:06:56.349Z,990.45
2019-04-26T00:07:53.341Z,990.43
2019-04-26T00:08:50.374Z,990.46
2019-04-26T00:09:47.308Z,990.48
2019-04-26T00:10:44.302Z,990.42
2019-04-26T00:11:41.317Z,990.56
2019-04-26T00:12:37.797Z,990.55
2019-04-26T00:13:36.635Z,990.64
2019-04-26T00:14:32.279Z,990.59
2019-04-26T00:15:29.290Z,990.62
2019-04-26T00:16:26.263Z,990.71
2019-04-26T00:17:23.284Z,990.73
2019-04-26T00:18:20.901Z,990.72
2019-04-26T00:19:17.879Z,990.73
2019-04-26T00:20:14.888Z,990.66
2019-04-26T00:21:11.723Z,990.68
2019-04-26T00:22:08.212Z,990.61
2019-04-26T00:23:05.235Z,990.59
2019-04-26T00:24:02.203Z,990.59
2019-04-26T00:24:59.207Z,990.60
2019-04-26T00:25:56.194Z,990.71
2019-04-26T00:26:54.191Z,990.71
2019-04-26T00:27:50.194Z,990.67
2019-04-26T00:28:47.166Z,990.56
2019-04-26T00:29:45.177Z,990.58
2019-04-26T00:30:41.202Z,990.56
2019-04-26T00:31:38.159Z,990.59
2019-04-26T00:32:35.149Z,990.61
2019-04-26T00:33:32.140Z,990.61
2019-04-26T00:34:29.132Z,990.61
2019-04-26T00:35:26.165Z,990.53
2019-04-26T00:36:23.131Z,990.50
2019-04-26T00:37:20.250Z,990.49
2019-04-26T00:38:18.135Z,990.44
2019-04-26T00:39:14.334Z,990.44
2019-04-26T00:40:11.679Z,990.39
2019-04-26T00:41:08.081Z,990.40
2019-04-26T00:42:05.090Z,990.42
2019-04-26T00:43:02.063Z,990.37
2019-04-26T00:43:58.573Z,990.34
2019-04-26T00:44:56.062Z,990.48
2019-04-26T00:45:53.054Z,990.52
2019-04-26T00:46:50.043Z,990.67
2019-04-26T00:47:47.093Z,990.76
2019-04-26T00:48:44.034Z,990.80
2019-04-26T00:49:43.735Z,990.88
2019-04-26T00:50:38.015Z,990.87
2019-04-26T00:51:35.007Z,990.96
2019-04-26T00:52:32.045Z,991.00
2019-04-26T00:53:28.997Z,991.01
2019-04-26T00:54:25.987Z,990.94
2019-04-26T00:55:23.886Z,990.84
2019-04-26T00:56:20.184Z,990.83
2019-04-26T00:57:18.121Z,990.73
2019-04-26T00:58:14.921Z,990.64
2019-04-26T00:59:10.970Z,990.64
2019-04-26T01:00:07.957Z,990.60
2019-04-26T01:01:04.952Z,990.60
2019-04-26T01:02:01.930Z,990.44
2019-04-26T01:02:58.915Z,990.55
2019-04-26T01:03:55.920Z,990.51
2019-04-26T01:04:52.917Z,990.53
2019-04-26T01:05:59.528Z,990.52
2019-04-26T01:06:46.899Z,990.61
2019-04-26T01:07:43.899Z,990.53
2019-04-26T01:08:40.888Z,990.62
2019-04-26T01:09:37.898Z,990.64
2019-04-26T01:10:34.945Z,990.61
2019-04-26T01:11:31.865Z,990.56
2019-04-26T01:12:28.875Z,990.62
2019-04-26T01:13:26.164Z,990.80
2019-04-26T01:14:22.846Z,990.94
2019-04-26T01:15:21.470Z,991.08
2019-04-26T01:16:17.438Z,990.89
2019-04-26T01:17:13.828Z,991.05
2019-04-26T01:18:10.829Z,991.03
2019-04-26T01:19:07.811Z,990.82
2019-04-26T01:20:04.834Z,990.87
2019-04-26T01:21:01.801Z,990.93
2019-04-26T01:21:58.792Z,991.00
2019-04-26T01:22:55.781Z,990.95
2019-04-26T01:23:52.781Z,991.01
2019-04-26T01:24:49.277Z,990.99
2019-04-26T01:25:46.808Z,991.02
2019-04-26T01:26:43.760Z,991.00
2019-04-26T01:27:40.754Z,990.80
2019-04-26T01:28:37.765Z,990.80
2019-04-26T01:29:34.733Z,990.83
2019-04-26T01:30:31.722Z,990.85
2019-04-26T01:31:28.735Z,990.78
2019-04-26T01:32:26.135Z,990.71
2019-04-26T01:33:22.713Z,990.72
2019-04-26T01:34:20.341Z,990.64
2019-04-26T01:35:16.698Z,990.65
2019-04-26T01:36:13.792Z,990.64
2019-04-26T01:37:10.675Z,990.85
2019-04-26T01:38:07.685Z,990.83
2019-04-26T01:39:04.665Z,990.94
2019-04-26T01:40:01.977Z,990.99
2019-04-26T01:40:58.647Z,991.07
2019-04-26T01:41:55.650Z,991.15
2019-04-26T01:42:52.655Z,991.01
2019-04-26T01:43:49.649Z,991.05
2019-04-26T01:44:46.642Z,990.98
2019-04-26T01:45:43.615Z,991.00
2019-04-26T01:46:40.115Z,991.02
2019-04-26T01:47:37.611Z,991.05
2019-04-26T01:48:34.611Z,990.94
2019-04-26T01:49:32.499Z,990.87
2019-04-26T01:50:29.450Z,990.87
2019-04-26T01:51:26.591Z,990.73
2019-04-26T01:52:23.960Z,990.67
2019-04-26T01:53:21.050Z,990.84
2019-04-26T01:54:16.566Z,990.84
2019-04-26T01:55:13.556Z,990.83
2019-04-26T01:56:10.549Z,990.95
2019-04-26T01:57:07.545Z,990.93
2019-04-26T01:58:04.535Z,990.83
2019-04-26T01:59:01.529Z,990.75
2019-04-26T01:59:58.521Z,990.85
2019-04-26T02:00:55.803Z,990.77
2019-04-26T02:01:52.508Z,990.79
2019-04-26T02:02:49.546Z,990.78
2019-04-26T02:03:46.526Z,990.88
2019-04-26T02:04:43.481Z,990.80
2019-04-26T02:05:40.468Z,990.83
2019-04-26T02:06:37.479Z,990.66
2019-04-26T02:07:34.469Z,990.52
2019-04-26T02:08:32.442Z,990.76
2019-04-26T02:09:28.456Z,990.64
2019-04-26T02:10:26.572Z,990.44
2019-04-26T02:11:23.983Z,990.50
2019-04-26T02:12:19.420Z,990.54
2019-04-26T02:13:16.427Z,990.61
2019-04-26T02:14:13.419Z,990.73
2019-04-26T02:15:10.415Z,990.73
2019-04-26T02:16:07.411Z,990.64
2019-04-26T02:17:04.400Z,990.62
2019-04-26T02:18:00.903Z,990.76
2019-04-26T02:18:58.381Z,990.91
2019-04-26T02:19:55.382Z,990.87
2019-04-26T02:20:52.365Z,990.92
2019-04-26T02:21:48.863Z,990.87
2019-04-26T02:22:46.367Z,990.77
2019-04-26T02:23:43.360Z,990.86
2019-04-26T02:24:39.841Z,990.84
2019-04-26T02:25:37.328Z,990.84
2019-04-26T02:26:34.858Z,990.88
2019-04-26T02:27:32.391Z,990.94
2019-04-26T02:28:28.376Z,990.78
2019-04-26T02:29:26.606Z,990.94
2019-04-26T02:30:22.305Z,991.03
2019-04-26T02:31:19.326Z,991.10
2019-04-26T02:32:15.800Z,991.05
2019-04-26T02:33:13.269Z,991.03
2019-04-26T02:34:10.305Z,991.18
2019-04-26T02:35:07.264Z,991.23
2019-04-26T02:36:04.265Z,991.22
2019-04-26T02:37:01.256Z,991.27
2019-04-26T02:37:58.239Z,991.28
2019-04-26T02:38:54.766Z,991.20
2019-04-26T02:39:52.232Z,991.21
2019-04-26T02:40:49.222Z,991.17
2019-04-26T02:41:46.240Z,991.32
2019-04-26T02:42:43.225Z,991.48
2019-04-26T02:43:41.206Z,991.61
2019-04-26T02:44:38.413Z,991.63
2019-04-26T02:45:36.390Z,991.36
2019-04-26T02:46:32.499Z,991.31
2019-04-26T02:47:28.951Z,991.37
2019-04-26T02:48:25.177Z,991.50
2019-04-26T02:49:22.178Z,991.57
2019-04-26T02:50:19.161Z,991.63
2019-04-26T02:51:16.145Z,991.71
2019-04-26T02:52:13.156Z,991.71
2019-04-26T02:53:10.135Z,991.65
2019-04-26T02:54:07.147Z,991.59
2019-04-26T02:55:04.141Z,991.46
2019-04-26T02:56:01.119Z,991.39
2019-04-26T02:56:58.116Z,991.47
2019-04-26T02:57:55.094Z,991.44
2019-04-26T02:58:52.105Z,991.53
2019-04-26T02:59:49.092Z,991.55
2019-04-26T03:00:46.086Z,991.63
2019-04-26T03:01:43.070Z,991.43
2019-04-26T03:02:40.551Z,991.46
2019-04-26T03:03:38.300Z,991.53
2019-04-26T03:04:35.615Z,991.63
2019-04-26T03:05:32.280Z,991.70
2019-04-26T03:06:30.030Z,991.64
2019-04-26T03:07:25.036Z,991.60
2019-04-26T03:08:22.020Z,991.52
2019-04-26T03:09:19.019Z,991.43
2019-04-26T03:10:16.020Z,991.49
2019-04-26T03:11:17.067Z,991.49
2019-04-26T03:12:10.005Z,991.57
2019-04-26T03:13:07.002Z,991.67
2019-04-26T03:14:03.991Z,991.66
2019-04-26T03:15:13.154Z,991.61
2019-04-26T03:15:57.477Z,991.65
2019-04-26T03:16:54.973Z,991.66
2019-04-26T03:17:51.967Z,991.68
2019-04-26T03:18:48.995Z,991.73
2019-04-26T03:19:45.937Z,991.73
2019-04-26T03:20:42.952Z,991.71
2019-04-26T03:21:39.933Z,991.69
2019-04-26T03:22:38.597Z,991.65
2019-04-26T03:23:45.659Z,991.67
2019-04-26T03:24:32.505Z,991.51
2019-04-26T03:25:27.912Z,991.57
2019-04-26T03:26:24.891Z,991.65
2019-04-26T03:27:21.893Z,991.71
2019-04-26T03:28:18.893Z,991.67
2019-04-26T03:29:15.888Z,991.65
2019-04-26T03:30:22.744Z,991.65
2019-04-26T03:31:09.956Z,991.61
2019-04-26T03:32:06.927Z,991.69
2019-04-26T03:33:03.910Z,991.69
2019-04-26T03:34:00.964Z,991.68
2019-04-26T03:34:57.939Z,991.76
2019-04-26T03:35:57.543Z,991.77
2019-04-26T03:36:51.813Z,991.73
2019-04-26T03:37:48.823Z,991.66
2019-04-26T03:38:45.819Z,991.68
2019-04-26T03:39:44.428Z,991.56
2019-04-26T03:40:40.975Z,991.57
2019-04-26T03:41:38.575Z,991.61
2019-04-26T03:42:35.177Z,991.61
2019-04-26T03:43:30.764Z,991.73
2019-04-26T03:44:27.767Z,991.69
2019-04-26T03:45:24.771Z,991.67
2019-04-26T03:46:21.744Z,991.56
2019-04-26T03:47:18.748Z,991.59
2019-04-26T03:48:15.729Z,991.67
2019-04-26T03:49:12.735Z,991.67
2019-04-26T03:50:09.762Z,991.54
2019-04-26T03:51:06.719Z,991.44
2019-04-26T03:52:03.705Z,991.44
2019-04-26T03:53:00.732Z,991.47
2019-04-26T03:53:57.701Z,991.38
2019-04-26T03:54:54.702Z,991.42
2019-04-26T03:55:51.688Z,991.27
2019-04-26T03:56:48.673Z,991.21
2019-04-26T03:57:46.163Z,991.14
2019-04-26T03:58:43.621Z,991.10
2019-04-26T03:59:40.883Z,991.19
2019-04-26T04:00:38.736Z,991.10
2019-04-26T04:01:35.393Z,991.10
2019-04-26T04:02:30.638Z,991.23
2019-04-26T04:03:27.634Z,991.23
2019-04-26T04:04:24.621Z,991.18
2019-04-26T04:05:21.617Z,991.19
2019-04-26T04:06:18.617Z,991.05
2019-04-26T04:07:15.625Z,991.13
2019-04-26T04:08:12.617Z,991.03
2019-04-26T04:09:09.598Z,991.14
2019-04-26T04:10:06.585Z,991.19
2019-04-26T04:11:03.586Z,991.16
2019-04-26T04:12:10.719Z,991.23
2019-04-26T04:12:57.578Z,991.21
2019-04-26T04:13:54.622Z,991.26
2019-04-26T04:14:51.546Z,991.23
2019-04-26T04:15:48.631Z,991.26
2019-04-26T04:16:47.358Z,991.26
2019-04-26T04:17:45.402Z,991.27
2019-04-26T04:18:40.468Z,991.28
2019-04-26T04:19:38.391Z,991.25
2019-04-26T04:20:33.522Z,991.14
2019-04-26T04:21:30.497Z,991.28
2019-04-26T04:22:27.495Z,991.17
2019-04-26T04:23:24.492Z,991.28
2019-04-26T04:24:21.480Z,991.26
2019-04-26T04:25:18.481Z,991.33
2019-04-26T04:26:15.468Z,991.38
2019-04-26T04:27:12.463Z,991.41
2019-04-26T04:28:09.448Z,991.40
2019-04-26T04:29:05.944Z,991.45
2019-04-26T04:30:03.449Z,991.50
2019-04-26T04:31:00.442Z,991.48
2019-04-26T04:31:57.423Z,991.50
2019-04-26T04:32:54.444Z,991.44
2019-04-26T04:33:52.643Z,991.51
2019-04-26T04:34:49.662Z,991.51
2019-04-26T04:35:46.087Z,991.52
2019-04-26T04:36:44.529Z,991.61
2019-04-26T04:37:54.548Z,991.65
2019-04-26T04:38:36.379Z,991.65
2019-04-26T04:39:33.373Z,991.73
2019-04-26T04:40:30.385Z,991.73
2019-04-26T04:41:27.353Z,991.66
2019-04-26T04:42:24.368Z,991.66
2019-04-26T04:43:21.386Z,991.57
2019-04-26T04:44:18.378Z,991.64
2019-04-26T04:45:15.323Z,991.74
2019-04-26T04:46:12.485Z,991.71
2019-04-26T04:47:23.537Z,991.75
2019-04-26T04:48:06.305Z,991.75
2019-04-26T04:49:03.398Z,991.71
2019-04-26T04:50:00.284Z,991.67
2019-04-26T04:50:57.298Z,991.59
2019-04-26T04:51:54.290Z,991.61
2019-04-26T04:52:52.186Z,991.42
2019-04-26T04:53:49.669Z,991.41
2019-04-26T04:55:00.801Z,991.72
2019-04-26T04:55:43.474Z,991.66
2019-04-26T04:56:39.246Z,991.62
2019-04-26T04:57:36.264Z,991.71
2019-04-26T04:58:33.228Z,991.85
2019-04-26T04:59:30.273Z,991.81
2019-04-26T05:00:27.216Z,991.84
2019-04-26T05:01:24.198Z,991.74
2019-04-26T05:02:21.198Z,991.77
2019-04-26T05:03:18.204Z,991.74
2019-04-26T05:04:15.204Z,991.76
2019-04-26T05:05:12.180Z,991.87
2019-04-26T05:06:09.176Z,991.86
2019-04-26T05:07:06.173Z,991.79
2019-04-26T05:08:06.730Z,991.86
2019-04-26T05:09:00.146Z,991.99
2019-04-26T05:09:56.647Z,991.86
2019-04-26T05:10:54.155Z,991.86
2019-04-26T05:11:51.994Z,991.85
2019-04-26T05:12:49.996Z,991.94
2019-04-26T05:13:46.277Z,991.94
2019-04-26T05:14:42.114Z,991.92
2019-04-26T05:15:39.107Z,991.76
2019-04-26T05:16:36.259Z,991.78
2019-04-26T05:17:33.102Z,991.72
2019-04-26T05:18:30.084Z,991.80
2019-04-26T05:19:27.104Z,991.86
2019-04-26T05:20:24.070Z,991.71
2019-04-26T05:21:21.063Z,991.86
2019-04-26T05:22:18.060Z,991.85
2019-04-26T05:23:15.052Z,991.90
2019-04-26T05:24:12.057Z,991.92
2019-04-26T05:25:09.036Z,991.83
2019-04-26T05:26:06.031Z,991.87
2019-04-26T05:27:03.040Z,991.88
2019-04-26T05:28:00.026Z,991.90
2019-04-26T05:28:57.010Z,991.98
2019-04-26T05:29:54.147Z,992.03
2019-04-26T05:30:50.504Z,992.04
2019-04-26T05:31:49.616Z,992.06
2019-04-26T05:32:44.991Z,992.04
2019-04-26T05:33:41.965Z,992.01
2019-04-26T05:34:38.965Z,992.06
2019-04-26T05:35:35.521Z,992.08
2019-04-26T05:36:32.956Z,992.11
2019-04-26T05:37:29.951Z,992.07
2019-04-26T05:38:26.940Z,992.03
2019-04-26T05:39:23.939Z,992.04
2019-04-26T05:40:21.923Z,992.04
2019-04-26T05:41:17.921Z,992.09
2019-04-26T05:42:14.925Z,992.17
2019-04-26T05:43:11.908Z,992.00
2019-04-26T05:44:08.894Z,992.08
2019-04-26T05:45:05.892Z,992.24
2019-04-26T05:46:02.874Z,992.20
2019-04-26T05:47:00.981Z,992.16
2019-04-26T05:48:08.409Z,992.28
2019-04-26T05:48:53.862Z,992.29
2019-04-26T05:49:51.784Z,992.29
2019-04-26T05:50:47.850Z,992.30
2019-04-26T05:51:44.842Z,992.36
2019-04-26T05:52:41.838Z,992.30
2019-04-26T05:53:38.819Z,992.36
2019-04-26T05:54:35.829Z,992.22
2019-04-26T05:55:32.804Z,992.17
2019-04-26T05:56:29.806Z,992.27
2019-04-26T05:57:26.805Z,992.27
2019-04-26T05:58:23.794Z,992.21
2019-04-26T05:59:20.776Z,992.16
2019-04-26T06:00:17.785Z,992.27
2019-04-26T06:01:14.785Z,992.07
2019-04-26T06:02:11.771Z,992.11
2019-04-26T06:03:08.760Z,992.22
2019-04-26T06:04:05.758Z,992.20
2019-04-26T06:05:02.746Z,992.18
2019-04-26T06:05:59.729Z,992.21
2019-04-26T06:06:57.261Z,992.26
2019-04-26T06:07:54.226Z,992.35
2019-04-26T06:08:51.175Z,992.38
2019-04-26T06:09:47.715Z,992.47
2019-04-26T06:10:44.707Z,992.46
2019-04-26T06:11:41.694Z,992.39
2019-04-26T06:12:38.684Z,992.30
2019-04-26T06:13:35.674Z,992.38
2019-04-26T06:14:32.662Z,992.36
2019-04-26T06:15:29.655Z,992.37
2019-04-26T06:16:26.665Z,992.48
2019-04-26T06:17:23.666Z,992.54
2019-04-26T06:18:20.646Z,992.49
2019-04-26T06:19:17.628Z,992.65
2019-04-26T06:20:22.797Z,992.68
2019-04-26T06:21:11.134Z,992.59
2019-04-26T06:22:08.619Z,992.81
2019-04-26T06:23:06.611Z,992.76
2019-04-26T06:24:02.606Z,992.81
2019-04-26T06:25:00.469Z,992.79
2019-04-26T06:25:58.337Z,992.81
2019-04-26T06:26:54.316Z,992.88
2019-04-26T06:27:50.581Z,992.97
2019-04-26T06:28:48.576Z,993.01
2019-04-26T06:29:44.571Z,992.96
2019-04-26T06:30:45.597Z,992.88
2019-04-26T06:31:38.055Z,993.09
2019-04-26T06:32:35.626Z,993.13
2019-04-26T06:33:32.545Z,993.05
2019-04-26T06:34:29.530Z,993.15
2019-04-26T06:35:26.521Z,993.12
2019-04-26T06:36:23.020Z,993.11
2019-04-26T06:37:20.508Z,993.08
2019-04-26T06:38:17.517Z,993.19
2019-04-26T06:39:13.991Z,993.28
2019-04-26T06:40:11.485Z,993.24
2019-04-26T06:41:08.479Z,993.29
2019-04-26T06:42:05.464Z,993.30
2019-04-26T06:43:02.783Z,993.28
2019-04-26T06:44:00.375Z,993.36
2019-04-26T06:44:56.460Z,993.42
2019-04-26T06:45:54.127Z,993.42
2019-04-26T06:46:50.443Z,993.34
2019-04-26T06:47:47.511Z,993.35
2019-04-26T06:48:44.433Z,993.32
2019-04-26T06:49:41.409Z,993.31
2019-04-26T06:50:38.398Z,993.30
2019-04-26T06:51:36.402Z,993.25
2019-04-26T06:52:32.395Z,993.27
2019-04-26T06:53:29.394Z,993.33
2019-04-26T06:54:26.388Z,993.29
2019-04-26T06:55:23.374Z,993.36
2019-04-26T06:56:20.363Z,993.30
2019-04-26T06:57:17.363Z,993.26
2019-04-26T06:58:14.377Z,993.12
2019-04-26T06:59:11.341Z,993.16
2019-04-26T07:00:09.328Z,993.11
2019-04-26T07:01:05.417Z,993.18
2019-04-26T07:02:02.943Z,993.14
2019-04-26T07:02:59.313Z,993.26
2019-04-26T07:03:58.175Z,993.29
2019-04-26T07:04:53.306Z,993.23
2019-04-26T07:05:50.293Z,993.20
2019-04-26T07:06:47.295Z,993.18
2019-04-26T07:07:44.282Z,993.22
2019-04-26T07:08:41.292Z,993.25
2019-04-26T07:09:38.267Z,993.19
2019-04-26T07:10:35.254Z,993.23
2019-04-26T07:11:32.247Z,993.22
2019-04-26T07:12:29.237Z,993.34
2019-04-26T07:13:25.745Z,993.27
2019-04-26T07:14:23.239Z,993.29
2019-04-26T07:15:28.320Z,993.26
2019-04-26T07:16:22.813Z,993.26
2019-04-26T07:17:14.213Z,993.19
2019-04-26T07:18:11.209Z,993.24
2019-04-26T07:19:08.300Z,993.29
2019-04-26T07:20:06.058Z,993.25
2019-04-26T07:21:02.191Z,993.28
2019-04-26T07:22:00.588Z,993.20
2019-04-26T07:22:56.164Z,993.16
2019-04-26T07:23:53.184Z,993.25
2019-04-26T07:24:50.155Z,993.25
2019-04-26T07:25:47.154Z,993.27
2019-04-26T07:26:44.162Z,993.39
2019-04-26T07:27:41.131Z,993.42
2019-04-26T07:28:38.133Z,993.49
2019-04-26T07:29:35.114Z,993.50
2019-04-26T07:30:32.168Z,993.52
2019-04-26T07:31:29.109Z,993.61
2019-04-26T07:32:26.107Z,993.61
2019-04-26T07:33:23.106Z,993.62
2019-04-26T07:34:20.078Z,993.62
2019-04-26T07:35:17.079Z,993.66
2019-04-26T07:36:14.087Z,993.75
2019-04-26T07:37:11.383Z,993.83
2019-04-26T07:38:08.991Z,993.90
2019-04-26T07:39:17.713Z,993.96
2019-04-26T07:40:02.965Z,994.01
2019-04-26T07:40:59.044Z,994.00
2019-04-26T07:41:56.055Z,994.03
2019-04-26T07:42:53.025Z,993.95
2019-04-26T07:43:50.024Z,993.98
2019-04-26T07:44:47.005Z,994.06
2019-04-26T07:45:44.008Z,993.91
2019-04-26T07:46:40.987Z,993.96
2019-04-26T07:47:37.995Z,993.98
2019-04-26T07:48:34.989Z,993.95
2019-04-26T07:49:31.983Z,993.85
2019-04-26T07:50:28.969Z,993.81
2019-04-26T07:51:25.952Z,993.96
2019-04-26T07:52:22.658Z,993.81
2019-04-26T07:53:19.945Z,993.85
2019-04-26T07:54:16.934Z,993.92
2019-04-26T07:55:13.944Z,993.91
2019-04-26T07:56:11.373Z,993.91
2019-04-26T07:57:08.712Z,993.97
2019-04-26T07:58:05.199Z,994.02
2019-04-26T07:59:04.205Z,993.95
2019-04-26T07:59:58.897Z,993.95
2019-04-26T08:00:55.914Z,993.94
2019-04-26T08:01:52.882Z,993.95
2019-04-26T08:02:49.909Z,994.02
2019-04-26T08:03:46.374Z,993.89
2019-04-26T08:04:43.862Z,993.94
2019-04-26T08:05:40.861Z,994.03
2019-04-26T08:06:37.854Z,994.05
2019-04-26T08:07:34.850Z,994.14
2019-04-26T08:08:31.853Z,994.12
2019-04-26T08:09:28.836Z,994.13
2019-04-26T08:10:25.836Z,994.18
2019-04-26T08:11:22.809Z,994.23
2019-04-26T08:12:19.831Z,994.24
2019-04-26T08:13:16.796Z,994.22
2019-04-26T08:14:14.725Z,994.18
2019-04-26T08:15:11.390Z,994.19
2019-04-26T08:16:08.657Z,994.20
2019-04-26T08:17:05.281Z,994.25
2019-04-26T08:18:01.774Z,994.23
2019-04-26T08:18:59.750Z,994.24
2019-04-26T08:19:57.592Z,994.25
2019-04-26T08:20:52.758Z,994.21
2019-04-26T08:21:49.733Z,994.27
2019-04-26T08:22:46.737Z,994.27
2019-04-26T08:23:43.739Z,994.24
2019-04-26T08:24:40.226Z,994.16
2019-04-26T08:25:37.253Z,994.14
2019-04-26T08:26:34.206Z,994.22
2019-04-26T08:27:31.704Z,994.16
2019-04-26T08:28:28.689Z,994.21
2019-04-26T08:29:25.690Z,994.23
2019-04-26T08:30:22.897Z,994.22
2019-04-26T08:31:20.035Z,994.24
2019-04-26T08:32:16.178Z,994.18
2019-04-26T08:33:14.709Z,994.05
2019-04-26T08:34:10.176Z,994.10
2019-04-26T08:35:15.145Z,994.15
2019-04-26T08:36:04.634Z,994.13
2019-04-26T08:37:03.095Z,994.06
2019-04-26T08:37:58.129Z,994.18
2019-04-26T08:38:56.618Z,994.20
2019-04-26T08:39:52.611Z,994.24
2019-04-26T08:40:49.110Z,994.22
2019-04-26T08:41:46.604Z,994.23
2019-04-26T08:42:43.099Z,994.27
2019-04-26T08:43:40.098Z,994.24
2019-04-26T08:44:37.576Z,994.18
2019-04-26T08:45:34.088Z,994.16
2019-04-26T08:46:35.807Z,994.21
2019-04-26T08:47:28.556Z,994.24
2019-04-26T08:48:27.728Z,994.28
2019-04-26T08:49:22.542Z,994.25
2019-04-26T08:50:19.530Z,994.23
2019-04-26T08:51:20.750Z,994.26
2019-04-26T08:52:14.929Z,994.41
2019-04-26T08:53:10.519Z,994.50
2019-04-26T08:54:07.511Z,994.42
2019-04-26T08:55:04.500Z,994.60
2019-04-26T08:56:01.505Z,994.58
2019-04-26T08:56:58.483Z,994.76
2019-04-26T08:57:55.470Z,994.66
2019-04-26T08:58:52.464Z,994.70
2019-04-26T08:59:49.465Z,994.77
2019-04-26T09:00:46.462Z,994.76
2019-04-26T09:01:45.480Z,994.66
2019-04-26T09:02:40.446Z,994.76
2019-04-26T09:03:37.443Z,994.74
2019-04-26T09:04:34.432Z,994.68
2019-04-26T09:05:31.413Z,994.60
2019-04-26T09:06:27.922Z,994.63
2019-04-26T09:07:25.424Z,994.70
2019-04-26T09:08:22.922Z,994.70
2019-04-26T09:09:19.840Z,994.63
2019-04-26T09:10:15.894Z,994.58
2019-04-26T09:11:23.671Z,994.73
2019-04-26T09:12:09.950Z,994.69
2019-04-26T09:13:07.368Z,994.86
2019-04-26T09:14:03.866Z,994.85
2019-04-26T09:15:01.356Z,994.84
2019-04-26T09:15:57.917Z,994.80
2019-04-26T09:16:54.851Z,994.69
2019-04-26T09:17:51.836Z,994.79
2019-04-26T09:18:54.353Z,994.77
2019-04-26T09:19:46.380Z,994.89
2019-04-26T09:20:44.323Z,994.86
2019-04-26T09:21:40.310Z,994.86
2019-04-26T09:22:37.293Z,994.84
2019-04-26T09:23:40.400Z,994.77
2019-04-26T09:24:31.302Z,994.79
2019-04-26T09:25:30.312Z,994.88
2019-04-26T09:26:25.344Z,994.99
2019-04-26T09:27:22.544Z,994.96
2019-04-26T09:28:19.289Z,994.91
2019-04-26T09:29:15.750Z,994.91
2019-04-26T09:30:13.243Z,995.05
2019-04-26T09:31:10.235Z,994.94
2019-04-26T09:32:07.236Z,994.89
2019-04-26T09:33:04.265Z,994.84
2019-04-26T09:34:01.210Z,994.93
2019-04-26T09:34:58.196Z,994.99
2019-04-26T09:35:55.208Z,994.99
2019-04-26T09:36:52.205Z,995.04
2019-04-26T09:37:49.189Z,995.02
2019-04-26T09:38:46.186Z,995.15
2019-04-26T09:39:43.472Z,994.95
2019-04-26T09:40:40.166Z,994.92
2019-04-26T09:41:36.674Z,995.07
2019-04-26T09:42:33.655Z,995.02
2019-04-26T09:43:30.655Z,995.02
2019-04-26T09:44:27.639Z,995.02
2019-04-26T09:45:25.139Z,995.02
2019-04-26T09:46:22.123Z,995.18
2019-04-26T09:47:19.110Z,995.13
2019-04-26T09:48:16.112Z,995.16
2019-04-26T09:49:12.614Z,994.97
2019-04-26T09:50:14.934Z,995.01
2019-04-26T09:51:07.091Z,995.03
2019-04-26T09:52:04.093Z,995.29
2019-04-26T09:53:00.582Z,995.22
2019-04-26T09:53:57.569Z,995.01
2019-04-26T09:54:55.059Z,994.94
2019-04-26T09:55:52.054Z,994.90
2019-04-26T09:56:49.342Z,994.78
2019-04-26T09:57:45.539Z,994.86
2019-04-26T09:58:42.527Z,994.89
2019-04-26T09:59:41.157Z,994.92
2019-04-26T10:00:36.516Z,994.92
2019-04-26T10:01:33.522Z,994.98
2019-04-26T10:02:33.884Z,995.03
2019-04-26T10:03:27.522Z,995.19
2019-04-26T10:04:24.494Z,995.06
2019-04-26T10:05:23.603Z,995.06
2019-04-26T10:06:18.491Z,995.06
2019-04-26T10:07:15.975Z,994.82
2019-04-26T10:08:14.569Z,994.91
2019-04-26T10:09:09.948Z,994.86
2019-04-26T10:10:06.453Z,994.81
2019-04-26T10:11:05.816Z,994.94
2019-04-26T10:12:00.954Z,995.07
2019-04-26T10:12:57.427Z,995.01
2019-04-26T10:13:54.420Z,994.89
2019-04-26T10:14:51.913Z,995.15
2019-04-26T10:15:48.408Z,995.06
2019-04-26T10:16:45.406Z,994.87
2019-04-26T10:17:46.397Z,994.91
2019-04-26T10:18:39.876Z,995.12
2019-04-26T10:19:36.867Z,995.04
2019-04-26T10:20:33.373Z,994.87
2019-04-26T10:21:30.363Z,994.90
2019-04-26T10:22:27.364Z,994.92
2019-04-26T10:23:24.365Z,994.78
2019-04-26T10:24:21.353Z,994.80
2019-04-26T10:25:18.336Z,994.80
2019-04-26T10:26:15.337Z,994.84
2019-04-26T10:27:12.321Z,994.78
2019-04-26T10:28:11.849Z,994.94
2019-04-26T10:29:06.306Z,994.98
2019-04-26T10:30:09.002Z,995.03
2019-04-26T10:31:00.291Z,994.98
2019-04-26T10:31:57.286Z,995.04
2019-04-26T10:32:58.242Z,995.03
2019-04-26T10:33:51.770Z,995.02
2019-04-26T10:34:49.763Z,995.13
2019-04-26T10:35:45.758Z,995.10
2019-04-26T10:36:42.262Z,995.22
2019-04-26T10:37:40.120Z,995.18
2019-04-26T10:38:36.745Z,995.04
2019-04-26T10:39:36.748Z,995.20
2019-04-26T10:40:35.762Z,995.13
2019-04-26T10:41:27.705Z,995.27
2019-04-26T10:42:24.711Z,995.19
2019-04-26T10:43:22.716Z,995.25
2019-04-26T10:44:18.698Z,995.29
2019-04-26T10:45:16.350Z,995.27
2019-04-26T10:46:12.674Z,995.28
2019-04-26T10:47:09.665Z,995.23
2019-04-26T10:48:09.682Z,995.21
2019-04-26T10:49:09.713Z,995.22
2019-04-26T10:50:01.643Z,995.16
2019-04-26T10:50:57.141Z,995.18
2019-04-26T10:51:54.654Z,995.15
2019-04-26T10:52:54.230Z,995.20
2019-04-26T10:53:50.382Z,995.18
2019-04-26T10:54:46.125Z,995.19
2019-04-26T10:55:42.601Z,995.18
2019-04-26T10:56:39.105Z,995.19
2019-04-26T10:57:36.098Z,995.18
2019-04-26T10:58:36.211Z,995.12
2019-04-26T10:59:31.886Z,995.18
2019-04-26T11:00:27.580Z,995.08
2019-04-26T11:01:24.556Z,995.09
2019-04-26T11:02:21.550Z,995.18
2019-04-26T11:03:18.550Z,995.10
2019-04-26T11:04:15.052Z,995.08
2019-04-26T11:05:18.119Z,995.02
2019-04-26T11:06:09.521Z,995.11
2019-04-26T11:07:06.529Z,995.07
2019-04-26T11:08:03.517Z,995.14
2019-04-26T11:09:00.521Z,995.10
2019-04-26T11:09:57.518Z,995.16
2019-04-26T11:10:54.497Z,995.08
2019-04-26T11:11:52.530Z,995.13
2019-04-26T11:12:48.498Z,995.11
2019-04-26T11:13:45.488Z,995.18
2019-04-26T11:14:42.471Z,995.39
2019-04-26T11:15:39.463Z,995.17
2019-04-26T11:16:37.178Z,995.12
2019-04-26T11:17:33.450Z,995.11
2019-04-26T11:18:30.451Z,995.07
2019-04-26T11:19:27.425Z,994.99
2019-04-26T11:20:24.429Z,995.11
2019-04-26T11:21:22.396Z,995.11
2019-04-26T11:22:28.569Z,995.09
2019-04-26T11:23:15.403Z,995.20
2019-04-26T11:24:15.271Z,995.15
2019-04-26T11:25:09.401Z,995.02
2019-04-26T11:26:06.401Z,995.01
2019-04-26T11:27:05.317Z,994.99
2019-04-26T11:28:00.373Z,995.07
2019-04-26T11:28:57.380Z,995.06
2019-04-26T11:29:54.274Z,995.07
2019-04-26T11:30:52.148Z,995.00
2019-04-26T11:31:49.345Z,995.01
2019-04-26T11:32:45.812Z,995.18
2019-04-26T11:33:44.912Z,995.33
2019-04-26T11:34:39.443Z,995.14
2019-04-26T11:35:36.532Z,995.14
2019-04-26T11:36:33.308Z,995.18
2019-04-26T11:37:30.699Z,995.02
2019-04-26T11:39:24.300Z,995.01
2019-04-26T11:40:14.006Z,995.02
2019-04-26T11:40:21.281Z,994.95
2019-04-26T11:41:18.276Z,995.11
2019-04-26T11:42:15.357Z,995.10
2019-04-26T11:43:12.253Z,995.06
2019-04-26T11:44:09.249Z,995.12
2019-04-26T11:45:10.462Z,995.15
2019-04-26T11:46:04.614Z,995.10
2019-04-26T11:47:03.261Z,995.16
2019-04-26T11:47:57.219Z,995.11
2019-04-26T11:48:59.254Z,995.07
2019-04-26T11:49:50.741Z,995.17
2019-04-26T11:50:51.828Z,995.06